Time;durP1;ratioP1;P1;durP2;ratioP2;P2;SDS_P1;SDS_P2;PMS_P1;PMS_P2;Temp;Humidity;BMP_temperature;BMP_pressure;BME280_temperature;BME280_humidity;BME280_pressure;Samples;Min_cycle;Max_cycle;Signal;HPM_P1;HPM_P2
2022/04/08 00:00:19;;;;;;;6.93;2.08;;;9.30;99.90;;;;;;5058044;28;20349;-52
2022/04/08 00:02:45;;;;;;;4.45;1.48;;;9.30;99.90;;;;;;5056841;28;20028;-52
2022/04/08 00:05:11;;;;;;;4.15;1.60;;;9.20;99.90;;;;;;5058756;28;20112;-51
2022/04/08 00:07:37;;;;;;;3.47;1.30;;;9.20;99.90;;;;;;5057808;28;20055;-51
2022/04/08 00:10:06;;;;;;;4.63;1.27;;;9.20;99.90;;;;;;5057058;28;20060;-50
2022/04/08 00:12:32;;;;;;;3.78;0.90;;;9.30;99.90;;;;;;5057331;28;20113;-52
2022/04/08 00:14:59;;;;;;;2.60;1.17;;;9.30;99.90;;;;;;5057488;28;20074;-51
2022/04/08 00:17:25;;;;;;;3.13;1.15;;;9.30;99.90;;;;;;5058850;28;20567;-52
2022/04/08 00:19:50;;;;;;;2.17;0.88;;;9.30;99.90;;;;;;5055271;28;20025;-52
2022/04/08 00:22:18;;;;;;;1.77;0.77;;;9.30;99.90;;;;;;5057770;28;20530;-52
2022/04/08 00:24:44;;;;;;;6.00;0.90;;;9.20;99.90;;;;;;5056610;28;20028;-53
2022/04/08 00:27:10;;;;;;;2.08;0.65;;;9.30;99.90;;;;;;5058110;28;20028;-52
2022/04/08 00:29:36;;;;;;;6.53;1.30;;;9.30;99.90;;;;;;5055823;28;20036;-52
2022/04/08 00:32:02;;;;;;;1.23;0.52;;;9.30;99.90;;;;;;5058661;28;20017;-51
2022/04/08 00:34:28;;;;;;;3.38;0.82;;;9.30;99.90;;;;;;5056451;28;20025;-51
2022/04/08 00:36:55;;;;;;;2.33;0.70;;;9.30;99.90;;;;;;5059838;28;20052;-55
2022/04/08 00:39:21;;;;;;;2.13;0.65;;;9.40;99.90;;;;;;5068041;28;20043;-51
2022/04/08 00:41:47;;;;;;;2.63;0.80;;;9.40;99.90;;;;;;5068021;28;20103;-51
2022/04/08 00:44:13;;;;;;;1.88;0.40;;;9.40;99.90;;;;;;5067803;28;20581;-50
2022/04/08 00:46:39;;;;;;;2.40;0.70;;;9.40;99.90;;;;;;5067866;28;20021;-51
2022/04/08 00:49:05;;;;;;;1.98;0.60;;;9.40;99.90;;;;;;5068003;28;20049;-52
2022/04/08 00:51:35;;;;;;;3.72;1.38;;;9.40;99.90;;;;;;5086511;28;20028;-52
2022/04/08 00:54:03;;;;;;;1.55;0.45;;;9.40;99.90;;;;;;5061161;28;20033;-51
2022/04/08 00:56:30;;;;;;;2.83;0.80;;;9.40;99.90;;;;;;5073071;28;20372;-51
2022/04/08 00:58:56;;;;;;;;;;;9.40;99.90;;;;;;5072105;28;20117;-52
2022/04/08 01:01:23;;;;;;;1.75;0.60;;;9.50;99.90;;;;;;5078360;28;19908;-51
2022/04/08 01:03:52;;;;;;;2.20;0.60;;;9.50;99.90;;;;;;5081352;28;20533;-52
2022/04/08 01:06:21;;;;;;;2.80;0.57;;;9.60;99.90;;;;;;5077008;28;20071;-52
2022/04/08 01:08:49;;;;;;;1.05;0.50;;;9.60;99.90;;;;;;5079897;28;20139;-52
2022/04/08 01:11:16;;;;;;;2.15;0.40;;;9.60;99.90;;;;;;5071563;28;20024;-52
2022/04/08 01:13:42;;;;;;;2.58;0.80;;;9.60;99.90;;;;;;5071451;28;20016;-51
2022/04/08 01:16:08;;;;;;;5.28;1.17;;;9.60;99.90;;;;;;5071162;28;20036;-52
2022/04/08 01:18:35;;;;;;;5.07;1.42;;;9.60;99.90;;;;;;5071118;28;20056;-51
2022/04/08 01:21:05;;;;;;;4.10;1.10;;;9.60;99.90;;;;;;5080197;28;20032;-51
2022/04/08 01:23:34;;;;;;;3.22;0.90;;;9.60;99.90;;;;;;5079752;28;20701;-52
2022/04/08 01:26:04;;;;;;;3.53;0.90;;;9.60;99.90;;;;;;5077712;28;20032;-51
2022/04/08 01:28:29;;;;;;;2.15;0.70;;;9.60;99.90;;;;;;5079987;28;20379;-51
2022/04/08 01:30:55;;;;;;;4.95;1.63;;;9.70;99.90;;;;;;5074323;28;20025;-52
2022/04/08 01:33:21;;;;;;;2.75;0.70;;;9.60;99.90;;;;;;5073808;28;20024;-52
2022/04/08 01:35:46;;;;;;;4.95;0.90;;;9.70;99.90;;;;;;5079738;28;20586;-51
2022/04/08 01:38:12;;;;;;;4.75;1.17;;;9.70;99.90;;;;;;5081687;28;20055;-51
2022/04/08 01:40:38;;;;;;;2.22;0.93;;;9.70;99.90;;;;;;5076762;28;20024;-52
2022/04/08 01:43:04;;;;;;;2.58;0.88;;;9.80;99.90;;;;;;5050965;28;20017;-53
2022/04/08 01:45:29;;;;;;;1.70;0.70;;;9.60;99.90;;;;;;5050996;28;20029;-51
2022/04/08 01:47:55;;;;;;;3.60;0.80;;;9.70;99.90;;;;;;5050986;28;20102;-51
2022/04/08 01:50:22;;;;;;;4.55;0.95;;;9.70;99.90;;;;;;5056419;28;20059;-51
2022/04/08 01:52:48;;;;;;;2.53;0.60;;;9.60;99.90;;;;;;5070995;28;20020;-52
2022/04/08 01:55:14;;;;;;;4.32;0.85;;;9.60;99.90;;;;;;5070837;28;20025;-51
2022/04/08 01:57:41;;;;;;;3.75;1.10;;;9.60;99.90;;;;;;5071078;28;20028;-52
2022/04/08 02:00:08;;;;;;;5.13;0.87;;;9.60;99.90;;;;;;5070602;28;20029;-52
2022/04/08 02:02:35;;;;;;;2.50;0.70;;;9.60;99.90;;;;;;5070785;28;20032;-52
2022/04/08 02:05:00;;;;;;;3.72;0.70;;;9.50;99.90;;;;;;5070895;28;20040;-53
2022/04/08 02:07:26;;;;;;;4.65;0.88;;;9.50;99.90;;;;;;5070965;28;20032;-52
2022/04/08 02:09:52;;;;;;;3.42;0.88;;;9.50;99.90;;;;;;5070564;28;20028;-52
2022/04/08 02:12:18;;;;;;;4.32;0.85;;;9.50;99.90;;;;;;5070003;28;20544;-51
2022/04/08 02:14:44;;;;;;;2.80;0.75;;;9.40;99.90;;;;;;5070077;28;20043;-51
2022/04/08 02:17:10;;;;;;;6.05;1.50;;;9.40;99.90;;;;;;5070003;28;20559;-52
2022/04/08 02:19:36;;;;;;;10.13;1.00;;;9.30;99.90;;;;;;5068961;28;20030;-52
2022/04/08 02:22:03;;;;;;;3.55;1.10;;;9.30;99.90;;;;;;5070384;28;20052;-52
2022/04/08 02:24:29;;;;;;;4.60;0.88;;;9.30;99.90;;;;;;5070246;28;20029;-51
2022/04/08 02:26:55;;;;;;;3.17;0.98;;;9.20;99.90;;;;;;5070163;28;20028;-52
2022/04/08 02:29:21;;;;;;;4.20;0.95;;;9.20;99.90;;;;;;5069957;28;20629;-53
2022/04/08 02:31:47;;;;;;;3.20;1.27;;;9.10;99.90;;;;;;5070000;28;20823;-52
2022/04/08 02:34:13;;;;;;;3.58;0.88;;;9.00;99.90;;;;;;5070205;28;20040;-52
2022/04/08 02:36:38;;;;;;;6.18;1.20;;;9.00;99.90;;;;;;5069398;28;20079;-52
2022/04/08 02:39:04;;;;;;;4.93;1.13;;;9.00;99.90;;;;;;5069800;28;20542;-51
2022/04/08 02:41:30;;;;;;;5.43;1.17;;;9.00;99.90;;;;;;5069687;28;20035;-53
2022/04/08 02:43:56;;;;;;;3.17;0.90;;;9.00;99.90;;;;;;5069784;28;20036;-53
2022/04/08 02:46:21;;;;;;;4.13;0.80;;;8.90;99.90;;;;;;5069866;28;20021;-52
2022/04/08 02:48:47;;;;;;;5.65;1.63;;;8.80;99.90;;;;;;5069852;28;20031;-52
2022/04/08 02:51:13;;;;;;;4.75;1.13;;;8.80;99.90;;;;;;5069593;28;20042;-52
2022/04/08 02:53:39;;;;;;;4.05;0.95;;;8.90;99.90;;;;;;5069896;28;20029;-52
2022/04/08 02:56:05;;;;;;;5.53;0.82;;;8.90;99.90;;;;;;5069737;28;20405;-53
2022/04/08 02:58:30;;;;;;;4.97;0.88;;;8.80;99.90;;;;;;5069460;28;20137;-52
2022/04/08 03:00:59;;;;;;;7.13;0.75;;;8.80;99.90;;;;;;5069640;28;20475;-53
2022/04/08 03:03:28;;;;;;;1.25;0.60;;;8.70;99.90;;;;;;5069443;28;20032;-52
2022/04/08 03:05:54;;;;;;;5.70;1.15;;;8.70;99.90;;;;;;5070075;28;20032;-52
2022/04/08 03:08:21;;;;;;;7.45;1.00;;;8.80;99.90;;;;;;5069769;28;20029;-53
2022/04/08 03:10:47;;;;;;;4.35;0.80;;;8.70;99.90;;;;;;5069581;28;20040;-51
2022/04/08 03:13:12;;;;;;;5.40;0.75;;;8.70;99.90;;;;;;5069277;28;20024;-52
2022/04/08 03:15:39;;;;;;;3.05;1.02;;;8.60;99.90;;;;;;5069433;28;20121;-51
2022/04/08 03:18:05;;;;;;;3.78;0.77;;;8.60;99.90;;;;;;5069088;28;20020;-51
2022/04/08 03:20:31;;;;;;;4.03;1.27;;;8.60;99.90;;;;;;5069346;28;20044;-52
2022/04/08 03:22:57;;;;;;;3.10;0.90;;;8.60;99.90;;;;;;5069317;28;20039;-52
2022/04/08 03:25:23;;;;;;;8.35;1.00;;;8.50;99.90;;;;;;5068613;28;20036;-51
2022/04/08 03:27:49;;;;;;;3.58;0.80;;;8.50;99.90;;;;;;5068815;28;20028;-52
2022/04/08 03:30:14;;;;;;;5.25;1.00;;;8.40;99.90;;;;;;5069079;28;20086;-53
2022/04/08 03:32:40;;;;;;;1.65;0.70;;;8.40;99.90;;;;;;5068996;28;20035;-52
2022/04/08 03:35:06;;;;;;;4.70;0.80;;;8.40;99.90;;;;;;5069000;28;20135;-53
2022/04/08 03:37:32;;;;;;;5.72;1.00;;;8.40;99.90;;;;;;5068902;28;20562;-52
2022/04/08 03:39:58;;;;;;;10.43;1.30;;;8.40;99.90;;;;;;5067713;28;20032;-52
2022/04/08 03:42:25;;;;;;;3.58;0.90;;;8.30;99.90;;;;;;5068790;28;20547;-51
2022/04/08 03:44:51;;;;;;;4.95;2.45;;;8.30;99.90;;;;;;5069119;28;20040;-52
2022/04/08 03:47:18;;;;;;;7.43;1.50;;;8.20;99.90;;;;;;5068909;28;20032;-52
2022/04/08 03:49:43;;;;;;;6.22;1.05;;;8.30;99.90;;;;;;5068566;28;20032;-51
2022/04/08 03:52:09;;;;;;;5.80;1.08;;;8.20;99.90;;;;;;5068722;28;20032;-51
2022/04/08 03:54:36;;;;;;;8.60;1.05;;;8.30;99.40;;;;;;5067284;28;20418;-53
2022/04/08 03:57:02;;;;;;;2.75;1.52;;;8.20;99.90;;;;;;5068855;28;20430;-52
2022/04/08 03:59:28;;;;;;;3.28;0.77;;;8.20;99.80;;;;;;5068640;28;20085;-52
2022/04/08 04:01:54;;;;;;;6.72;1.00;;;8.20;98.50;;;;;;5068711;28;20399;-53
2022/04/08 04:04:19;;;;;;;5.50;1.00;;;8.20;98.90;;;;;;5067094;28;20067;-53
2022/04/08 04:06:45;;;;;;;8.32;1.48;;;8.20;97.60;;;;;;5068702;28;20447;-52
2022/04/08 04:09:11;;;;;;;6.90;0.70;;;8.30;97.50;;;;;;5068531;28;20107;-52
2022/04/08 04:11:36;;;;;;;8.65;1.70;;;8.30;97.20;;;;;;5068256;28;20017;-52
2022/04/08 04:14:02;;;;;;;5.75;1.40;;;8.40;96.00;;;;;;5068410;28;20468;-52
2022/04/08 04:16:28;;;;;;;11.88;1.77;;;8.20;97.10;;;;;;5068255;28;20025;-52
2022/04/08 04:18:54;;;;;;;9.45;2.00;;;8.20;98.10;;;;;;5068395;28;20024;-53
2022/04/08 04:21:20;;;;;;;7.10;1.90;;;8.10;98.70;;;;;;5068551;28;20430;-52
2022/04/08 04:23:45;;;;;;;12.00;1.70;;;8.10;99.20;;;;;;5068162;28;20043;-52
2022/04/08 04:26:11;;;;;;;12.35;2.00;;;8.10;99.20;;;;;;5068509;28;20020;-53
2022/04/08 04:28:37;;;;;;;6.18;2.00;;;8.00;99.90;;;;;;5068526;28;20034;-52
2022/04/08 04:31:04;;;;;;;9.82;2.33;;;8.00;99.90;;;;;;5068531;28;20032;-52
2022/04/08 04:33:30;;;;;;;;;;;8.00;99.90;;;;;;5068359;28;20479;-52
2022/04/08 04:35:56;;;;;;;7.57;2.10;;;8.00;99.90;;;;;;5068763;28;19917;-52
2022/04/08 04:38:23;;;;;;;12.40;3.88;;;8.10;99.90;;;;;;5070826;28;20070;-51
2022/04/08 04:40:49;;;;;;;18.98;5.60;;;8.10;99.90;;;;;;5070493;28;20021;-51
2022/04/08 04:43:15;;;;;;;27.15;8.68;;;8.10;99.90;;;;;;5070617;28;20040;-52
2022/04/08 04:45:41;;;;;;;12.02;4.68;;;8.10;99.90;;;;;;5072140;28;20055;-52
2022/04/08 04:48:08;;;;;;;11.90;2.28;;;8.00;99.90;;;;;;5071938;28;20368;-53
2022/04/08 04:50:33;;;;;;;5.47;1.45;;;8.20;99.90;;;;;;5071871;28;20028;-52
2022/04/08 04:53:00;;;;;;;6.10;1.85;;;8.20;99.90;;;;;;5071957;28;20174;-52
2022/04/08 04:55:26;;;;;;;7.55;2.67;;;8.20;99.90;;;;;;5071784;28;20020;-52
2022/04/08 04:57:53;;;;;;;10.30;2.55;;;8.20;99.90;;;;;;5071520;28;20135;-52
2022/04/08 05:00:19;;;;;;;7.47;1.77;;;8.20;99.90;;;;;;5071641;28;20586;-52
2022/04/08 05:02:45;;;;;;;9.13;2.42;;;8.30;99.90;;;;;;5071636;28;20031;-52
2022/04/08 05:05:11;;;;;;;9.57;2.65;;;8.20;99.90;;;;;;5071463;28;20036;-53
2022/04/08 05:07:39;;;;;;;8.63;1.73;;;8.20;99.90;;;;;;5071581;28;20133;-52
2022/04/08 05:10:06;;;;;;;10.60;2.35;;;8.30;99.90;;;;;;5071251;28;20504;-53
2022/04/08 05:12:32;;;;;;;11.73;2.40;;;8.30;99.90;;;;;;5071823;28;20051;-51
2022/04/08 05:14:58;;;;;;;7.78;2.70;;;8.40;99.90;;;;;;5071502;28;20033;-53
2022/04/08 05:17:24;;;;;;;8.80;2.55;;;8.40;99.90;;;;;;5071404;28;20197;-52
2022/04/08 05:19:49;;;;;;;9.40;2.25;;;8.40;99.90;;;;;;5069770;28;20021;-54
2022/04/08 05:22:15;;;;;;;8.77;2.03;;;8.40;99.90;;;;;;5070098;28;20396;-52
2022/04/08 05:24:41;;;;;;;6.82;1.77;;;8.50;99.90;;;;;;5071222;28;20043;-51
2022/04/08 05:27:06;;;;;;;7.15;1.77;;;8.50;99.90;;;;;;5070916;28;20025;-52
2022/04/08 05:29:32;;;;;;;5.95;1.58;;;8.50;99.90;;;;;;5071161;28;20033;-53
2022/04/08 05:31:58;;;;;;;5.68;1.48;;;8.50;99.90;;;;;;5071042;28;20486;-53
2022/04/08 05:34:26;;;;;;;5.65;1.63;;;8.50;99.90;;;;;;5069873;28;20056;-53
2022/04/08 05:36:52;;;;;;;5.40;1.70;;;8.60;99.90;;;;;;5069590;28;20079;-52
2022/04/08 05:39:18;;;;;;;6.35;1.60;;;8.60;99.90;;;;;;5071187;28;20032;-52
2022/04/08 05:41:43;;;;;;;7.55;1.73;;;8.70;99.90;;;;;;5071783;28;20624;-51
2022/04/08 05:44:09;;;;;;;12.38;2.05;;;8.70;99.90;;;;;;5070693;28;20044;-54
2022/04/08 05:46:35;;;;;;;7.20;1.83;;;8.70;99.90;;;;;;5071010;28;20490;-52
2022/04/08 05:49:01;;;;;;;9.63;2.30;;;8.70;99.90;;;;;;5070593;28;20389;-52
2022/04/08 05:51:27;;;;;;;9.05;1.80;;;8.70;99.90;;;;;;5070743;28;20091;-52
2022/04/08 05:53:52;;;;;;;13.43;2.67;;;8.70;99.90;;;;;;5070545;28;20494;-52
2022/04/08 05:56:18;;;;;;;5.95;1.75;;;8.80;99.90;;;;;;5070755;28;20631;-52
2022/04/08 05:58:44;;;;;;;5.05;2.25;;;8.80;99.90;;;;;;5071007;28;20029;-51
2022/04/08 06:01:10;;;;;;;6.65;1.80;;;8.80;98.50;;;;;;5070536;28;20500;-53
2022/04/08 06:03:36;;;;;;;11.02;4.03;;;8.80;99.90;;;;;;5070533;28;20041;-52
2022/04/08 06:06:03;;;;;;;11.40;4.00;;;8.90;99.50;;;;;;5070591;28;20028;-52
2022/04/08 06:08:28;;;;;;;5.47;2.20;;;9.00;98.20;;;;;;5070192;28;20112;-52
2022/04/08 06:10:54;;;;;;;6.45;1.50;;;9.00;99.90;;;;;;5070683;28;20115;-52
2022/04/08 06:13:24;;;;;;;9.23;1.33;;;9.10;99.90;;;;;;5070278;28;20067;-52
2022/04/08 06:15:51;;;;;;;6.07;1.40;;;9.00;97.70;;;;;;5070530;28;20063;-51
2022/04/08 06:18:18;;;;;;;9.13;2.22;;;9.00;98.90;;;;;;5069046;28;20033;-52
2022/04/08 06:20:44;;;;;;;11.63;2.30;;;9.00;98.20;;;;;;5070346;28;20390;-51
2022/04/08 06:23:10;;;;;;;10.45;2.38;;;8.90;99.90;;;;;;5070261;28;20550;-51
2022/04/08 06:25:35;;;;;;;4.88;1.13;;;9.00;97.00;;;;;;5069902;28;20047;-52
2022/04/08 06:28:06;;;;;;;8.48;1.95;;;9.10;97.20;;;;;;5069826;28;20028;-53
2022/04/08 06:30:37;;;;;;;5.78;2.15;;;9.20;97.90;;;;;;5069964;28;20033;-51
2022/04/08 06:33:04;;;;;;;4.47;1.10;;;9.30;95.30;;;;;;5070043;28;20414;-53
2022/04/08 06:35:30;;;;;;;5.82;1.58;;;9.40;95.50;;;;;;5069509;28;20053;-51
2022/04/08 06:38:07;;;;;;;5.70;1.20;;;9.40;95.20;;;;;;5069747;28;20040;-52
2022/04/08 06:40:38;;;;;;;5.38;1.00;;;9.40;96.70;;;;;;5069921;28;20074;-53
2022/04/08 06:43:05;;;;;;;5.10;1.10;;;9.50;96.10;;;;;;5069742;28;20051;-53
2022/04/08 06:45:32;;;;;;;6.60;1.55;;;9.50;96.00;;;;;;5069578;28;20037;-52
2022/04/08 06:47:58;;;;;;;7.27;1.13;;;9.40;95.70;;;;;;5069817;28;20028;-54
2022/04/08 06:50:24;;;;;;;8.13;1.67;;;9.40;94.30;;;;;;5069557;28;20037;-52
2022/04/08 06:52:50;;;;;;;9.25;1.30;;;9.40;94.70;;;;;;5069853;28;20020;-53
2022/04/08 06:55:16;;;;;;;7.75;1.30;;;9.50;94.90;;;;;;5069968;28;20029;-53
2022/04/08 06:57:43;;;;;;;6.80;1.40;;;9.60;95.30;;;;;;5069923;28;20024;-52
2022/04/08 07:00:11;;;;;;;5.55;1.52;;;9.70;93.40;;;;;;5069293;28;20036;-53
2022/04/08 07:02:38;;;;;;;5.93;1.10;;;9.80;93.80;;;;;;5069536;28;20391;-53
2022/04/08 07:05:05;;;;;;;4.13;1.33;;;9.80;93.30;;;;;;5069332;28;20486;-52
2022/04/08 07:07:38;;;;;;;4.63;0.90;;;10.00;94.20;;;;;;5069050;28;20032;-51
2022/04/08 07:10:06;;;;;;;5.50;1.40;;;10.10;94.40;;;;;;5069269;28;20842;-52
2022/04/08 07:12:32;;;;;;;2.20;0.75;;;10.20;91.70;;;;;;5069212;28;20020;-52
2022/04/08 07:14:58;;;;;;;6.45;0.60;;;10.10;89.20;;;;;;5069299;28;20033;-53
2022/04/08 07:17:27;;;;;;;5.47;0.90;;;10.10;89.40;;;;;;5069220;28;20506;-53
2022/04/08 07:19:53;;;;;;;8.43;1.23;;;10.30;91.80;;;;;;5068971;28;20036;-52
2022/04/08 07:22:19;;;;;;;3.78;1.05;;;10.20;90.60;;;;;;5069206;28;20487;-52
2022/04/08 07:24:44;;;;;;;4.68;1.13;;;10.20;90.10;;;;;;5068839;28;20064;-52
2022/04/08 07:27:11;;;;;;;2.72;0.52;;;10.20;85.70;;;;;;5068915;28;20060;-51
2022/04/08 07:29:36;;;;;;;3.97;0.75;;;10.30;86.60;;;;;;5069061;28;20031;-52
2022/04/08 07:32:02;;;;;;;3.05;0.85;;;10.20;85.00;;;;;;5068947;28;20020;-52
2022/04/08 07:34:28;;;;;;;4.35;0.73;;;10.30;86.60;;;;;;5067467;28;20073;-52
2022/04/08 07:36:53;;;;;;;4.35;0.82;;;10.30;85.60;;;;;;5068744;28;20590;-51
2022/04/08 07:39:19;;;;;;;3.60;1.00;;;10.30;85.90;;;;;;5068739;28;20035;-52
2022/04/08 07:41:45;;;;;;;2.63;0.80;;;10.00;81.90;;;;;;5068496;28;20021;-52
2022/04/08 07:44:10;;;;;;;3.53;0.80;;;10.10;82.60;;;;;;5068661;28;20040;-52
2022/04/08 07:46:36;;;;;;;4.88;0.75;;;10.10;83.80;;;;;;5068817;28;20033;-52
2022/04/08 07:49:02;;;;;;;2.90;1.35;;;10.10;85.20;;;;;;5068608;28;20039;-52
2022/04/08 07:51:27;;;;;;;10.38;0.85;;;10.10;84.80;;;;;;5068723;28;20122;-53
2022/04/08 07:53:54;;;;;;;4.68;1.13;;;10.10;85.30;;;;;;5068659;28;20021;-51
2022/04/08 07:56:19;;;;;;;4.93;0.88;;;10.10;86.70;;;;;;5068700;28;20035;-53
2022/04/08 07:58:47;;;;;;;3.22;1.17;;;10.10;84.60;;;;;;5067814;28;20028;-53
2022/04/08 08:01:13;;;;;;;5.43;1.10;;;10.10;87.30;;;;;;5068343;28;20082;-53
2022/04/08 08:03:40;;;;;;;5.50;1.00;;;10.20;87.10;;;;;;5065806;28;20121;-54
2022/04/08 08:06:06;;;;;;;6.22;1.27;;;10.20;85.60;;;;;;5068119;28;20039;-52
2022/04/08 08:08:31;;;;;;;2.60;1.17;;;10.20;84.50;;;;;;5068827;28;20024;-52
2022/04/08 08:10:57;;;;;;;4.93;1.20;;;10.20;85.30;;;;;;5069075;28;20032;-52
2022/04/08 08:13:23;;;;;;;3.80;1.17;;;10.30;86.10;;;;;;5071556;28;20033;-51
2022/04/08 08:15:49;;;;;;;5.00;1.35;;;10.20;84.90;;;;;;5070828;28;20217;-52
2022/04/08 08:18:14;;;;;;;4.97;1.40;;;10.30;88.90;;;;;;5070875;28;20032;-52
2022/04/08 08:20:40;;;;;;;5.25;1.15;;;10.30;88.80;;;;;;5071048;28;20039;-52
2022/04/08 08:23:06;;;;;;;6.22;1.10;;;10.40;85.60;;;;;;5070774;28;20028;-52
2022/04/08 08:25:32;;;;;;;9.52;2.08;;;10.30;83.20;;;;;;5070774;28;20407;-52
2022/04/08 08:28:01;;;;;;;3.30;1.25;;;10.30;83.30;;;;;;5071969;28;20092;-52
2022/04/08 08:30:31;;;;;;;8.27;1.38;;;10.30;84.20;;;;;;5072497;28;20043;-53
2022/04/08 08:32:58;;;;;;;5.93;1.15;;;10.30;83.70;;;;;;5072284;28;20032;-52
2022/04/08 08:35:25;;;;;;;9.35;1.25;;;10.30;85.00;;;;;;5071863;28;20055;-52
2022/04/08 08:37:51;;;;;;;6.00;1.38;;;10.30;83.30;;;;;;5071784;28;20854;-51
2022/04/08 08:40:18;;;;;;;5.55;1.25;;;10.30;86.00;;;;;;5071695;28;20033;-52
2022/04/08 08:42:45;;;;;;;8.68;1.42;;;10.40;80.10;;;;;;5071839;28;20017;-53
2022/04/08 08:45:12;;;;;;;6.43;1.50;;;10.40;78.80;;;;;;5072033;28;20040;-52
2022/04/08 08:47:38;;;;;;;2.85;0.80;;;10.40;79.80;;;;;;5071885;28;20028;-52
2022/04/08 08:50:08;;;;;;;4.35;1.45;;;10.40;82.80;;;;;;5072064;28;20036;-53
2022/04/08 08:52:34;;;;;;;7.28;1.40;;;10.40;83.30;;;;;;5070854;28;20051;-52
2022/04/08 08:55:05;;;;;;;5.40;1.20;;;10.40;83.80;;;;;;5071960;28;20039;-52
2022/04/08 08:57:31;;;;;;;3.47;0.60;;;10.50;82.20;;;;;;5071548;28;20025;-52
2022/04/08 09:00:06;;;;;;;4.07;0.90;;;10.50;81.50;;;;;;5071853;28;20063;-52
2022/04/08 09:02:32;;;;;;;5.28;1.05;;;10.50;80.30;;;;;;5071709;28;20060;-53
2022/04/08 09:04:57;;;;;;;4.18;1.33;;;10.60;83.10;;;;;;5071557;28;20127;-53
2022/04/08 09:07:25;;;;;;;3.53;1.00;;;10.70;79.20;;;;;;5071335;28;20090;-52
2022/04/08 09:09:55;;;;;;;4.00;1.02;;;10.80;82.00;;;;;;5071535;28;20075;-52
2022/04/08 09:12:26;;;;;;;6.13;1.00;;;10.90;81.40;;;;;;5071486;28;20028;-52
2022/04/08 09:14:57;;;;;;;4.18;1.42;;;11.00;78.20;;;;;;5071532;28;20119;-53
2022/04/08 09:17:26;;;;;;;4.50;1.00;;;11.00;79.60;;;;;;5071466;28;20029;-52
2022/04/08 09:19:53;;;;;;;4.75;0.70;;;11.60;84.00;;;;;;5071289;28;20056;-52
2022/04/08 09:22:20;;;;;;;5.90;1.48;;;11.80;77.30;;;;;;5070721;28;20468;-52
2022/04/08 09:24:46;;;;;;;4.43;0.73;;;12.10;76.70;;;;;;5071020;28;20037;-52
2022/04/08 09:27:12;;;;;;;5.78;1.27;;;12.00;73.40;;;;;;5071106;28;20512;-52
2022/04/08 09:29:42;;;;;;;5.40;1.45;;;12.30;74.10;;;;;;5071160;28;20034;-52
2022/04/08 09:32:10;;;;;;;5.25;1.05;;;12.70;73.60;;;;;;5071425;28;20078;-52
2022/04/08 09:34:37;;;;;;;4.03;1.02;;;13.20;70.40;;;;;;5070974;28;20028;-52
2022/04/08 09:37:13;;;;;;;5.45;1.25;;;13.00;72.30;;;;;;5069158;28;20044;-52
2022/04/08 09:39:58;;;;;;;6.05;1.33;;;13.30;69.50;;;;;;5070748;28;20531;-53
2022/04/08 09:42:39;;;;;;;10.90;2.03;;;13.30;68.00;;;;;;5070724;28;20496;-52
2022/04/08 09:45:05;;;;;;;4.28;1.33;;;12.90;68.60;;;;;;5070639;28;20480;-52
2022/04/08 09:47:32;;;;;;;4.45;1.05;;;12.70;68.90;;;;;;5070532;28;20035;-51
2022/04/08 09:49:57;;;;;;;3.30;0.73;;;13.20;69.20;;;;;;5071087;28;20032;-51
2022/04/08 09:52:25;;;;;;;6.22;1.35;;;13.40;67.90;;;;;;5070756;28;20064;-52
2022/04/08 09:54:53;;;;;;;3.13;1.00;;;13.30;66.90;;;;;;5070670;28;20044;-52
2022/04/08 09:57:19;;;;;;;4.07;1.23;;;13.40;66.80;;;;;;5070589;28;20055;-52
2022/04/08 09:59:54;;;;;;;3.70;1.00;;;12.70;67.10;;;;;;5070489;28;20107;-52
2022/04/08 10:02:24;;;;;;;5.07;1.40;;;12.40;68.10;;;;;;5070856;28;20074;-53
2022/04/08 10:04:50;;;;;;;3.95;1.60;;;12.40;70.50;;;;;;5070511;28;20041;-52
2022/04/08 10:07:16;;;;;;;7.50;1.60;;;12.30;72.80;;;;;;5070710;28;20059;-51
2022/04/08 10:09:59;;;;;;;8.70;1.48;;;12.40;72.10;;;;;;5070320;28;20032;-52
2022/04/08 10:13:03;;;;;;;4.93;1.20;;;12.20;70.60;;;;;;5070418;28;20078;-52
2022/04/08 10:15:42;;;;;;;3.15;1.38;;;12.30;72.20;;;;;;5046355;28;20033;-52
2022/04/08 10:18:08;;;;;;;4.32;1.50;;;12.80;72.20;;;;;;5070393;28;20117;-52
2022/04/08 10:20:35;;;;;;;3.72;1.33;;;13.10;71.20;;;;;;5070401;28;20063;-52
2022/04/08 10:23:05;;;;;;;;;;;12.80;69.70;;;;;;5070746;28;20032;-52
2022/04/08 10:25:58;;;;;;;9.95;1.75;;;11.90;67.90;;;;;;5069935;28;20287;-51
2022/04/08 10:28:37;;;;;;;7.40;1.20;;;12.10;72.60;;;;;;5067065;28;20029;-52
2022/04/08 10:31:14;;;;;;;5.00;1.35;;;12.20;72.50;;;;;;5069916;28;20044;-52
2022/04/08 10:33:49;;;;;;;3.55;1.48;;;12.00;70.50;;;;;;5069096;28;20020;-53
2022/04/08 10:36:15;;;;;;;5.35;1.50;;;11.90;71.20;;;;;;5069833;28;20087;-52
2022/04/08 10:38:40;;;;;;;3.08;1.15;;;11.80;70.10;;;;;;5069570;28;20464;-52
2022/04/08 10:41:09;;;;;;;4.43;1.27;;;11.60;69.00;;;;;;5069581;28;20096;-52
2022/04/08 10:43:44;;;;;;;5.38;1.40;;;11.40;70.40;;;;;;5069883;28;20029;-52
2022/04/08 10:46:10;;;;;;;3.72;1.17;;;11.50;72.60;;;;;;5070068;28;20098;-53
2022/04/08 10:48:37;;;;;;;5.80;1.20;;;11.80;74.00;;;;;;5069819;28;20465;-52
2022/04/08 10:51:11;;;;;;;5.53;1.45;;;12.20;72.70;;;;;;5069576;28;20054;-54
2022/04/08 10:53:41;;;;;;;4.10;1.30;;;12.30;70.10;;;;;;5069443;28;20492;-52
2022/04/08 10:56:13;;;;;;;6.60;1.08;;;12.10;70.70;;;;;;5069514;28;20115;-52
2022/04/08 10:58:42;;;;;;;8.48;1.30;;;11.90;69.50;;;;;;5069745;28;20025;-52
2022/04/08 11:01:25;;;;;;;2.88;1.08;;;11.80;72.20;;;;;;5069352;28;20029;-52
2022/04/08 11:04:04;;;;;;;4.63;0.98;;;11.80;71.50;;;;;;5069380;28;20048;-53
2022/04/08 11:06:34;;;;;;;6.97;1.40;;;11.80;71.00;;;;;;5069308;28;20033;-51
2022/04/08 11:09:14;;;;;;;3.90;1.00;;;11.90;72.90;;;;;;5069152;28;20035;-52
2022/04/08 11:11:46;;;;;;;2.58;1.02;;;12.10;72.10;;;;;;5069311;28;20024;-52
2022/04/08 11:14:12;;;;;;;6.30;1.10;;;12.40;73.40;;;;;;5069133;28;20526;-53
2022/04/08 11:16:39;;;;;;;4.15;1.27;;;12.40;71.20;;;;;;5069173;28;20036;-52
2022/04/08 11:19:10;;;;;;;3.58;1.50;;;12.20;70.70;;;;;;5069111;28;20021;-52
2022/04/08 11:21:40;;;;;;;3.22;1.23;;;12.10;70.60;;;;;;5069515;28;20425;-51
2022/04/08 11:24:07;;;;;;;3.00;0.73;;;11.90;67.80;;;;;;5069203;28;20036;-52
2022/04/08 11:26:49;;;;;;;3.03;0.93;;;11.70;66.60;;;;;;5068901;28;20495;-53
2022/04/08 11:29:19;;;;;;;6.43;0.60;;;11.90;65.30;;;;;;5069146;28;20043;-51
2022/04/08 11:31:47;;;;;;;2.60;0.60;;;12.00;63.80;;;;;;5068833;28;20024;-52
2022/04/08 11:34:13;;;;;;;4.22;0.85;;;12.00;64.20;;;;;;5068835;28;20415;-52
2022/04/08 11:36:40;;;;;;;3.17;1.23;;;12.00;63.70;;;;;;5068826;28;20102;-52
2022/04/08 11:39:06;;;;;;;3.35;0.63;;;11.90;61.00;;;;;;5068928;28;20031;-52
2022/04/08 11:41:34;;;;;;;1.73;0.80;;;11.80;61.80;;;;;;5064829;28;20143;-52
2022/04/08 11:44:01;;;;;;;8.50;3.53;;;11.90;62.20;;;;;;5048746;28;20043;-52
2022/04/08 11:46:27;;;;;;;8.15;1.30;;;12.60;65.10;;;;;;5067458;28;20036;-53
2022/04/08 11:48:52;;;;;;;5.30;1.10;;;12.90;61.90;;;;;;5068687;28;20093;-52
2022/04/08 11:51:20;;;;;;;4.43;1.40;;;13.00;63.30;;;;;;5068705;28;20112;-52
2022/04/08 11:53:48;;;;;;;4.10;1.33;;;13.30;61.20;;;;;;5068615;28;20027;-51
2022/04/08 11:56:23;;;;;;;5.30;0.98;;;13.60;60.70;;;;;;5068610;28;20420;-51
2022/04/08 11:58:55;;;;;;;6.00;0.80;;;13.90;58.90;;;;;;5068752;28;20017;-52
2022/04/08 12:01:21;;;;;;;5.85;0.88;;;13.60;58.20;;;;;;5068671;28;20575;-51
2022/04/08 12:03:50;;;;;;;3.88;1.05;;;12.80;58.80;;;;;;5068554;28;20492;-52
2022/04/08 12:06:18;;;;;;;4.38;1.10;;;13.20;60.80;;;;;;5068976;28;20078;-52
2022/04/08 12:08:47;;;;;;;;;;;13.60;63.00;;;;;;5068690;28;20040;-52
2022/04/08 12:11:13;;;;;;;3.55;0.90;;;14.20;60.20;;;;;;5068727;28;19919;-52
2022/04/08 12:13:41;;;;;;;5.35;1.10;;;14.30;62.00;;;;;;5068568;28;20058;-51
2022/04/08 12:16:13;;;;;;;3.38;1.17;;;13.70;58.60;;;;;;5068790;28;20094;-51
2022/04/08 12:18:51;;;;;;;6.95;2.80;;;13.30;60.40;;;;;;5068506;28;20107;-51
2022/04/08 12:21:21;;;;;;;;;;;13.10;60.70;;;;;;5068843;28;20108;-52
2022/04/08 12:23:48;;;;;;;4.10;1.23;;;12.90;61.60;;;;;;5068218;28;20296;-52
2022/04/08 12:26:14;;;;;;;6.07;1.30;;;13.50;60.20;;;;;;5068439;28;20388;-53
2022/04/08 12:28:40;;;;;;;7.82;1.27;;;13.80;59.70;;;;;;5068167;28;20431;-52
2022/04/08 12:31:12;;;;;;;6.35;1.20;;;12.90;59.40;;;;;;5078882;28;20111;-52
2022/04/08 12:33:38;;;;;;;6.32;1.08;;;12.80;59.40;;;;;;5076891;28;20085;-53
2022/04/08 12:36:09;;;;;;;4.82;1.17;;;12.80;62.10;;;;;;5078450;28;20099;-54
2022/04/08 12:38:35;;;;;;;4.30;1.05;;;12.70;61.60;;;;;;5074546;28;20012;-52
2022/04/08 12:41:01;;;;;;;5.22;0.80;;;12.80;62.60;;;;;;5059770;28;20061;-51
2022/04/08 12:43:27;;;;;;;5.30;1.20;;;13.00;59.00;;;;;;5078854;28;20480;-52
2022/04/08 12:45:53;;;;;;;6.63;1.08;;;13.50;62.10;;;;;;5074771;28;20040;-53
2022/04/08 12:48:18;;;;;;;7.72;1.17;;;13.80;58.50;;;;;;5068035;28;20039;-52
2022/04/08 12:50:44;;;;;;;4.90;0.90;;;13.70;57.30;;;;;;5066708;28;20063;-52
2022/04/08 12:53:10;;;;;;;3.90;0.98;;;13.50;57.60;;;;;;5068190;28;20522;-54